sensor_id;sensor_type;location;lat;lon;timestamp;P1;durP1;ratioP1;P2;durP2;ratioP2
16813;SDS011;8524;57.650;11.926;2023-08-06T00:01:57;2.77;;;2.30;;
16813;SDS011;8524;57.650;11.926;2023-08-06T00:04:24;2.60;;;2.27;;
16813;SDS011;8524;57.650;11.926;2023-08-06T00:06:51;3.57;;;2.10;;
16813;SDS011;8524;57.650;11.926;2023-08-06T00:09:18;2.30;;;1.97;;
16813;SDS011;8524;57.650;11.926;2023-08-06T00:11:45;2.47;;;1.97;;
16813;SDS011;8524;57.650;11.926;2023-08-06T00:14:12;3.23;;;2.30;;
16813;SDS011;8524;57.650;11.926;2023-08-06T00:16:44;2.67;;;2.33;;
16813;SDS011;8524;57.650;11.926;2023-08-06T00:19:11;2.60;;;1.80;;
16813;SDS011;8524;57.650;11.926;2023-08-06T00:21:38;2.67;;;2.00;;
16813;SDS011;8524;57.650;11.926;2023-08-06T00:24:05;2.53;;;1.77;;
16813;SDS011;8524;57.650;11.926;2023-08-06T00:26:32;1.93;;;1.70;;
16813;SDS011;8524;57.650;11.926;2023-08-06T00:28:59;2.80;;;2.07;;
16813;SDS011;8524;57.650;11.926;2023-08-06T00:31:26;2.13;;;2.00;;
16813;SDS011;8524;57.650;11.926;2023-08-06T00:33:55;2.07;;;1.93;;
16813;SDS011;8524;57.650;11.926;2023-08-06T00:36:22;2.30;;;2.10;;
16813;SDS011;8524;57.650;11.926;2023-08-06T00:38:49;2.83;;;2.00;;
16813;SDS011;8524;57.650;11.926;2023-08-06T00:41:17;2.40;;;2.20;;
16813;SDS011;8524;57.650;11.926;2023-08-06T00:43:44;2.07;;;1.97;;
16813;SDS011;8524;57.650;11.926;2023-08-06T00:46:11;2.00;;;1.80;;
16813;SDS011;8524;57.650;11.926;2023-08-06T00:48:38;2.90;;;1.70;;
16813;SDS011;8524;57.650;11.926;2023-08-06T00:51:07;4.37;;;2.53;;
16813;SDS011;8524;57.650;11.926;2023-08-06T00:53:36;2.63;;;1.87;;
16813;SDS011;8524;57.650;11.926;2023-08-06T00:56:04;2.50;;;1.97;;
16813;SDS011;8524;57.650;11.926;2023-08-06T00:58:31;2.20;;;2.00;;
16813;SDS011;8524;57.650;11.926;2023-08-06T01:00:59;2.97;;;2.07;;
16813;SDS011;8524;57.650;11.926;2023-08-06T01:03:26;2.10;;;1.90;;
16813;SDS011;8524;57.650;11.926;2023-08-06T01:05:53;3.90;;;2.20;;
16813;SDS011;8524;57.650;11.926;2023-08-06T01:08:26;2.33;;;2.10;;
16813;SDS011;8524;57.650;11.926;2023-08-06T01:11:05;2.20;;;2.00;;
16813;SDS011;8524;57.650;11.926;2023-08-06T01:13:42;2.40;;;2.10;;
16813;SDS011;8524;57.650;11.926;2023-08-06T01:16:12;2.67;;;1.93;;
16813;SDS011;8524;57.650;11.926;2023-08-06T01:18:41;1.80;;;1.70;;
16813;SDS011;8524;57.650;11.926;2023-08-06T01:21:12;1.83;;;1.67;;
16813;SDS011;8524;57.650;11.926;2023-08-06T01:23:39;2.10;;;1.90;;
16813;SDS011;8524;57.650;11.926;2023-08-06T01:26:10;2.30;;;2.10;;
16813;SDS011;8524;57.650;11.926;2023-08-06T01:28:43;3.07;;;1.70;;
16813;SDS011;8524;57.650;11.926;2023-08-06T01:31:18;2.80;;;2.10;;
16813;SDS011;8524;57.650;11.926;2023-08-06T01:33:48;2.47;;;2.27;;
16813;SDS011;8524;57.650;11.926;2023-08-06T01:36:18;2.13;;;1.70;;
16813;SDS011;8524;57.650;11.926;2023-08-06T01:38:47;2.90;;;1.93;;
16813;SDS011;8524;57.650;11.926;2023-08-06T01:41:14;2.50;;;1.90;;
16813;SDS011;8524;57.650;11.926;2023-08-06T01:43:41;2.20;;;2.00;;
16813;SDS011;8524;57.650;11.926;2023-08-06T01:46:08;2.67;;;1.80;;
16813;SDS011;8524;57.650;11.926;2023-08-06T01:48:35;2.73;;;2.00;;
16813;SDS011;8524;57.650;11.926;2023-08-06T01:51:03;2.67;;;2.10;;
16813;SDS011;8524;57.650;11.926;2023-08-06T01:53:32;1.97;;;1.77;;
16813;SDS011;8524;57.650;11.926;2023-08-06T01:55:59;4.57;;;2.10;;
16813;SDS011;8524;57.650;11.926;2023-08-06T01:58:26;2.13;;;1.80;;
16813;SDS011;8524;57.650;11.926;2023-08-06T02:00:53;2.17;;;2.00;;
16813;SDS011;8524;57.650;11.926;2023-08-06T02:03:20;2.20;;;2.00;;
16813;SDS011;8524;57.650;11.926;2023-08-06T02:05:47;2.30;;;1.90;;
16813;SDS011;8524;57.650;11.926;2023-08-06T02:08:14;2.33;;;1.87;;
16813;SDS011;8524;57.650;11.926;2023-08-06T02:10:43;2.60;;;2.22;;
16813;SDS011;8524;57.650;11.926;2023-08-06T02:13:11;2.63;;;2.37;;
16813;SDS011;8524;57.650;11.926;2023-08-06T02:15:41;3.10;;;2.10;;
16813;SDS011;8524;57.650;11.926;2023-08-06T02:18:09;1.93;;;1.73;;
16813;SDS011;8524;57.650;11.926;2023-08-06T02:20:36;2.00;;;1.80;;
16813;SDS011;8524;57.650;11.926;2023-08-06T02:23:03;2.10;;;1.90;;
16813;SDS011;8524;57.650;11.926;2023-08-06T02:25:30;2.07;;;1.87;;
16813;SDS011;8524;57.650;11.926;2023-08-06T02:27:59;2.53;;;2.15;;
16813;SDS011;8524;57.650;11.926;2023-08-06T02:30:26;2.20;;;1.70;;
16813;SDS011;8524;57.650;11.926;2023-08-06T02:32:53;2.10;;;1.90;;
16813;SDS011;8524;57.650;11.926;2023-08-06T02:35:20;3.58;;;2.28;;
16813;SDS011;8524;57.650;11.926;2023-08-06T02:37:47;3.30;;;2.10;;
16813;SDS011;8524;57.650;11.926;2023-08-06T02:40:14;2.83;;;1.90;;
16813;SDS011;8524;57.650;11.926;2023-08-06T02:42:41;2.60;;;2.30;;
16813;SDS011;8524;57.650;11.926;2023-08-06T02:45:10;2.07;;;1.83;;
16813;SDS011;8524;57.650;11.926;2023-08-06T02:47:37;2.20;;;2.00;;
16813;SDS011;8524;57.650;11.926;2023-08-06T02:50:04;3.20;;;2.30;;
16813;SDS011;8524;57.650;11.926;2023-08-06T02:52:32;2.67;;;2.30;;
16813;SDS011;8524;57.650;11.926;2023-08-06T02:54:59;3.43;;;2.00;;
16813;SDS011;8524;57.650;11.926;2023-08-06T02:57:27;5.40;;;2.63;;
16813;SDS011;8524;57.650;11.926;2023-08-06T02:59:54;3.10;;;2.20;;
16813;SDS011;8524;57.650;11.926;2023-08-06T03:02:22;4.00;;;2.40;;
16813;SDS011;8524;57.650;11.926;2023-08-06T03:04:49;2.33;;;2.17;;
16813;SDS011;8524;57.650;11.926;2023-08-06T03:07:16;2.83;;;1.80;;
16813;SDS011;8524;57.650;11.926;2023-08-06T03:09:43;2.60;;;2.40;;
16813;SDS011;8524;57.650;11.926;2023-08-06T03:12:10;2.20;;;2.00;;
16813;SDS011;8524;57.650;11.926;2023-08-06T03:14:38;2.83;;;2.50;;
16813;SDS011;8524;57.650;11.926;2023-08-06T03:17:05;2.50;;;2.30;;
16813;SDS011;8524;57.650;11.926;2023-08-06T03:19:33;3.47;;;2.20;;
16813;SDS011;8524;57.650;11.926;2023-08-06T03:22:00;2.90;;;2.30;;
16813;SDS011;8524;57.650;11.926;2023-08-06T03:24:27;3.07;;;2.13;;
16813;SDS011;8524;57.650;11.926;2023-08-06T03:26:54;2.20;;;2.00;;
16813;SDS011;8524;57.650;11.926;2023-08-06T03:29:21;3.10;;;2.30;;
16813;SDS011;8524;57.650;11.926;2023-08-06T03:31:49;2.73;;;2.30;;
16813;SDS011;8524;57.650;11.926;2023-08-06T03:34:16;2.60;;;2.40;;
16813;SDS011;8524;57.650;11.926;2023-08-06T03:36:44;2.70;;;2.30;;
16813;SDS011;8524;57.650;11.926;2023-08-06T03:39:11;3.17;;;2.37;;
16813;SDS011;8524;57.650;11.926;2023-08-06T03:41:39;2.40;;;2.17;;
16813;SDS011;8524;57.650;11.926;2023-08-06T03:44:06;3.10;;;2.10;;
16813;SDS011;8524;57.650;11.926;2023-08-06T03:46:33;3.63;;;2.30;;
16813;SDS011;8524;57.650;11.926;2023-08-06T03:49:00;3.03;;;2.60;;
16813;SDS011;8524;57.650;11.926;2023-08-06T03:51:27;2.47;;;2.22;;
16813;SDS011;8524;57.650;11.926;2023-08-06T03:53:55;2.40;;;2.20;;
16813;SDS011;8524;57.650;11.926;2023-08-06T03:56:23;2.37;;;2.13;;
16813;SDS011;8524;57.650;11.926;2023-08-06T03:58:50;2.47;;;2.10;;
16813;SDS011;8524;57.650;11.926;2023-08-06T04:01:17;2.93;;;2.33;;
16813;SDS011;8524;57.650;11.926;2023-08-06T04:03:44;2.20;;;2.00;;
16813;SDS011;8524;57.650;11.926;2023-08-06T04:06:11;2.60;;;2.23;;
16813;SDS011;8524;57.650;11.926;2023-08-06T04:08:38;4.60;;;2.20;;
16813;SDS011;8524;57.650;11.926;2023-08-06T04:11:06;2.50;;;2.30;;
16813;SDS011;8524;57.650;11.926;2023-08-06T04:13:33;3.77;;;2.30;;
16813;SDS011;8524;57.650;11.926;2023-08-06T04:16:01;2.20;;;1.97;;
16813;SDS011;8524;57.650;11.926;2023-08-06T04:18:28;2.70;;;2.00;;
16813;SDS011;8524;57.650;11.926;2023-08-06T04:20:55;2.20;;;2.00;;
16813;SDS011;8524;57.650;11.926;2023-08-06T04:23:22;2.47;;;2.03;;
16813;SDS011;8524;57.650;11.926;2023-08-06T04:25:50;3.17;;;2.20;;
16813;SDS011;8524;57.650;11.926;2023-08-06T04:28:18;2.57;;;1.90;;
16813;SDS011;8524;57.650;11.926;2023-08-06T04:30:45;3.07;;;2.23;;
16813;SDS011;8524;57.650;11.926;2023-08-06T04:33:13;2.90;;;2.10;;
16813;SDS011;8524;57.650;11.926;2023-08-06T04:35:40;5.00;;;2.33;;
16813;SDS011;8524;57.650;11.926;2023-08-06T04:38:07;2.07;;;1.87;;
16813;SDS011;8524;57.650;11.926;2023-08-06T04:40:34;2.20;;;1.90;;
16813;SDS011;8524;57.650;11.926;2023-08-06T04:43:01;2.73;;;1.97;;
16813;SDS011;8524;57.650;11.926;2023-08-06T04:45:30;4.10;;;1.97;;
16813;SDS011;8524;57.650;11.926;2023-08-06T04:47:57;2.37;;;2.17;;
16813;SDS011;8524;57.650;11.926;2023-08-06T04:50:24;1.97;;;1.80;;
16813;SDS011;8524;57.650;11.926;2023-08-06T04:52:51;3.03;;;2.00;;
16813;SDS011;8524;57.650;11.926;2023-08-06T04:55:18;2.30;;;1.80;;
16813;SDS011;8524;57.650;11.926;2023-08-06T04:57:45;4.13;;;1.93;;
16813;SDS011;8524;57.650;11.926;2023-08-06T05:00:12;3.10;;;2.00;;
16813;SDS011;8524;57.650;11.926;2023-08-06T05:02:41;1.90;;;1.70;;
16813;SDS011;8524;57.650;11.926;2023-08-06T05:05:08;3.20;;;1.60;;
16813;SDS011;8524;57.650;11.926;2023-08-06T05:07:35;2.70;;;1.90;;
16813;SDS011;8524;57.650;11.926;2023-08-06T05:10:02;2.00;;;1.60;;
16813;SDS011;8524;57.650;11.926;2023-08-06T05:12:29;3.03;;;2.07;;
16813;SDS011;8524;57.650;11.926;2023-08-06T05:14:56;2.37;;;1.63;;
16813;SDS011;8524;57.650;11.926;2023-08-06T05:17:23;2.70;;;1.97;;
16813;SDS011;8524;57.650;11.926;2023-08-06T05:19:52;1.93;;;1.70;;
16813;SDS011;8524;57.650;11.926;2023-08-06T05:22:19;2.77;;;1.70;;
16813;SDS011;8524;57.650;11.926;2023-08-06T05:24:46;3.13;;;2.00;;
16813;SDS011;8524;57.650;11.926;2023-08-06T05:27:13;2.67;;;1.80;;
16813;SDS011;8524;57.650;11.926;2023-08-06T05:29:40;2.35;;;1.95;;
16813;SDS011;8524;57.650;11.926;2023-08-06T05:32:07;1.63;;;1.53;;
16813;SDS011;8524;57.650;11.926;2023-08-06T05:34:34;1.70;;;1.60;;
16813;SDS011;8524;57.650;11.926;2023-08-06T05:37:03;1.90;;;1.70;;
16813;SDS011;8524;57.650;11.926;2023-08-06T05:39:30;3.70;;;1.77;;
16813;SDS011;8524;57.650;11.926;2023-08-06T05:41:57;1.90;;;1.70;;
16813;SDS011;8524;57.650;11.926;2023-08-06T05:44:24;3.03;;;1.40;;
16813;SDS011;8524;57.650;11.926;2023-08-06T05:46:51;2.07;;;1.43;;
16813;SDS011;8524;57.650;11.926;2023-08-06T05:49:18;2.30;;;1.60;;
16813;SDS011;8524;57.650;11.926;2023-08-06T05:51:45;2.57;;;1.40;;
16813;SDS011;8524;57.650;11.926;2023-08-06T05:54:14;1.90;;;1.53;;
16813;SDS011;8524;57.650;11.926;2023-08-06T05:56:42;2.37;;;1.60;;
16813;SDS011;8524;57.650;11.926;2023-08-06T05:59:09;1.60;;;1.50;;
16813;SDS011;8524;57.650;11.926;2023-08-06T06:01:36;1.73;;;1.10;;
16813;SDS011;8524;57.650;11.926;2023-08-06T06:04:03;2.13;;;1.37;;
16813;SDS011;8524;57.650;11.926;2023-08-06T06:06:30;1.87;;;1.40;;
16813;SDS011;8524;57.650;11.926;2023-08-06T06:08:57;1.30;;;1.20;;
16813;SDS011;8524;57.650;11.926;2023-08-06T06:11:26;2.20;;;1.40;;
16813;SDS011;8524;57.650;11.926;2023-08-06T06:13:53;2.07;;;1.47;;
16813;SDS011;8524;57.650;11.926;2023-08-06T06:16:20;1.73;;;1.50;;
16813;SDS011;8524;57.650;11.926;2023-08-06T06:18:47;2.90;;;1.43;;
16813;SDS011;8524;57.650;11.926;2023-08-06T06:21:14;1.60;;;1.30;;
16813;SDS011;8524;57.650;11.926;2023-08-06T06:23:41;2.43;;;1.23;;
16813;SDS011;8524;57.650;11.926;2023-08-06T06:26:08;1.80;;;1.37;;
16813;SDS011;8524;57.650;11.926;2023-08-06T06:28:37;2.40;;;1.47;;
16813;SDS011;8524;57.650;11.926;2023-08-06T06:31:04;2.13;;;1.60;;
16813;SDS011;8524;57.650;11.926;2023-08-06T06:33:31;1.40;;;1.30;;
16813;SDS011;8524;57.650;11.926;2023-08-06T06:35:58;1.87;;;1.10;;
16813;SDS011;8524;57.650;11.926;2023-08-06T06:38:25;1.47;;;1.13;;
16813;SDS011;8524;57.650;11.926;2023-08-06T06:40:56;1.30;;;1.20;;
16813;SDS011;8524;57.650;11.926;2023-08-06T06:43:23;1.93;;;1.30;;
16813;SDS011;8524;57.650;11.926;2023-08-06T06:45:53;1.37;;;1.10;;
16813;SDS011;8524;57.650;11.926;2023-08-06T06:48:23;1.77;;;1.20;;
16813;SDS011;8524;57.650;11.926;2023-08-06T06:50:50;1.33;;;1.10;;
16813;SDS011;8524;57.650;11.926;2023-08-06T06:53:18;1.57;;;1.07;;
16813;SDS011;8524;57.650;11.926;2023-08-06T06:55:45;1.27;;;1.00;;
16813;SDS011;8524;57.650;11.926;2023-08-06T06:58:14;1.57;;;1.30;;
16813;SDS011;8524;57.650;11.926;2023-08-06T07:00:41;1.93;;;1.27;;
16813;SDS011;8524;57.650;11.926;2023-08-06T07:03:10;2.73;;;1.40;;
16813;SDS011;8524;57.650;11.926;2023-08-06T07:05:37;1.80;;;1.00;;
16813;SDS011;8524;57.650;11.926;2023-08-06T07:08:04;1.60;;;1.30;;
16813;SDS011;8524;57.650;11.926;2023-08-06T07:10:31;1.53;;;1.20;;
16813;SDS011;8524;57.650;11.926;2023-08-06T07:12:58;1.67;;;1.40;;
16813;SDS011;8524;57.650;11.926;2023-08-06T07:15:25;3.17;;;1.10;;
16813;SDS011;8524;57.650;11.926;2023-08-06T07:17:52;2.30;;;1.17;;
16813;SDS011;8524;57.650;11.926;2023-08-06T07:20:21;2.53;;;1.30;;
16813;SDS011;8524;57.650;11.926;2023-08-06T07:22:48;1.83;;;1.10;;
16813;SDS011;8524;57.650;11.926;2023-08-06T07:25:15;1.93;;;1.00;;
16813;SDS011;8524;57.650;11.926;2023-08-06T07:27:42;2.13;;;1.30;;
16813;SDS011;8524;57.650;11.926;2023-08-06T07:30:10;1.97;;;1.03;;
16813;SDS011;8524;57.650;11.926;2023-08-06T07:32:37;1.40;;;1.10;;
16813;SDS011;8524;57.650;11.926;2023-08-06T07:35:04;5.10;;;1.17;;
16813;SDS011;8524;57.650;11.926;2023-08-06T07:37:34;2.33;;;1.20;;
16813;SDS011;8524;57.650;11.926;2023-08-06T07:40:02;2.27;;;1.07;;
16813;SDS011;8524;57.650;11.926;2023-08-06T07:42:29;1.67;;;1.20;;
16813;SDS011;8524;57.650;11.926;2023-08-06T07:44:58;1.47;;;1.20;;
16813;SDS011;8524;57.650;11.926;2023-08-06T07:47:25;1.73;;;1.10;;
16813;SDS011;8524;57.650;11.926;2023-08-06T07:49:52;1.17;;;1.07;;
16813;SDS011;8524;57.650;11.926;2023-08-06T07:52:19;1.30;;;1.00;;
16813;SDS011;8524;57.650;11.926;2023-08-06T07:54:48;1.33;;;1.15;;
16813;SDS011;8524;57.650;11.926;2023-08-06T07:57:15;1.23;;;1.07;;
16813;SDS011;8524;57.650;11.926;2023-08-06T07:59:42;1.33;;;1.03;;
16813;SDS011;8524;57.650;11.926;2023-08-06T08:02:09;1.80;;;1.10;;
16813;SDS011;8524;57.650;11.926;2023-08-06T08:04:36;1.33;;;1.00;;
16813;SDS011;8524;57.650;11.926;2023-08-06T08:07:03;0.87;;;0.83;;
16813;SDS011;8524;57.650;11.926;2023-08-06T08:09:31;1.50;;;1.00;;
16813;SDS011;8524;57.650;11.926;2023-08-06T08:11:59;1.53;;;1.30;;
16813;SDS011;8524;57.650;11.926;2023-08-06T08:14:28;1.43;;;0.93;;
16813;SDS011;8524;57.650;11.926;2023-08-06T08:17:00;1.57;;;1.00;;
16813;SDS011;8524;57.650;11.926;2023-08-06T08:19:27;1.50;;;1.05;;
16813;SDS011;8524;57.650;11.926;2023-08-06T08:21:54;1.73;;;1.10;;
16813;SDS011;8524;57.650;11.926;2023-08-06T08:24:22;1.30;;;0.97;;
16813;SDS011;8524;57.650;11.926;2023-08-06T08:26:50;2.10;;;1.10;;
16813;SDS011;8524;57.650;11.926;2023-08-06T08:29:19;1.57;;;1.03;;
16813;SDS011;8524;57.650;11.926;2023-08-06T08:31:46;3.17;;;1.10;;
16813;SDS011;8524;57.650;11.926;2023-08-06T08:34:14;2.87;;;1.20;;
16813;SDS011;8524;57.650;11.926;2023-08-06T08:36:41;1.30;;;1.10;;
16813;SDS011;8524;57.650;11.926;2023-08-06T08:39:08;1.20;;;1.10;;
16813;SDS011;8524;57.650;11.926;2023-08-06T08:41:36;1.60;;;1.10;;
16813;SDS011;8524;57.650;11.926;2023-08-06T08:44:03;1.90;;;1.07;;
16813;SDS011;8524;57.650;11.926;2023-08-06T08:46:36;2.60;;;1.20;;
16813;SDS011;8524;57.650;11.926;2023-08-06T08:49:04;1.30;;;1.00;;
16813;SDS011;8524;57.650;11.926;2023-08-06T08:51:32;1.53;;;1.10;;
16813;SDS011;8524;57.650;11.926;2023-08-06T08:54:00;2.10;;;1.17;;
16813;SDS011;8524;57.650;11.926;2023-08-06T08:56:29;1.47;;;0.80;;
16813;SDS011;8524;57.650;11.926;2023-08-06T08:58:56;1.57;;;1.00;;
16813;SDS011;8524;57.650;11.926;2023-08-06T09:01:24;1.37;;;1.10;;
16813;SDS011;8524;57.650;11.926;2023-08-06T09:03:54;1.33;;;1.00;;
16813;SDS011;8524;57.650;11.926;2023-08-06T09:06:23;1.70;;;0.97;;
16813;SDS011;8524;57.650;11.926;2023-08-06T09:08:54;1.17;;;1.00;;
16813;SDS011;8524;57.650;11.926;2023-08-06T09:11:27;2.20;;;1.10;;
16813;SDS011;8524;57.650;11.926;2023-08-06T09:14:04;2.20;;;1.07;;
16813;SDS011;8524;57.650;11.926;2023-08-06T09:16:33;1.27;;;1.00;;
16813;SDS011;8524;57.650;11.926;2023-08-06T09:19:07;0.83;;;0.70;;
16813;SDS011;8524;57.650;11.926;2023-08-06T09:21:36;1.60;;;1.10;;
16813;SDS011;8524;57.650;11.926;2023-08-06T09:24:07;1.50;;;1.10;;
16813;SDS011;8524;57.650;11.926;2023-08-06T09:26:36;1.60;;;1.00;;
16813;SDS011;8524;57.650;11.926;2023-08-06T09:29:04;1.00;;;0.90;;
16813;SDS011;8524;57.650;11.926;2023-08-06T09:31:33;0.97;;;0.90;;
16813;SDS011;8524;57.650;11.926;2023-08-06T09:34:09;1.00;;;0.87;;
16813;SDS011;8524;57.650;11.926;2023-08-06T09:36:39;3.80;;;1.20;;
16813;SDS011;8524;57.650;11.926;2023-08-06T09:39:12;1.35;;;0.85;;
16813;SDS011;8524;57.650;11.926;2023-08-06T09:41:39;1.20;;;1.00;;
16813;SDS011;8524;57.650;11.926;2023-08-06T09:44:11;1.57;;;0.90;;
16813;SDS011;8524;57.650;11.926;2023-08-06T09:46:43;0.90;;;0.80;;
16813;SDS011;8524;57.650;11.926;2023-08-06T09:49:14;1.03;;;0.83;;
16813;SDS011;8524;57.650;11.926;2023-08-06T09:51:41;1.10;;;1.00;;
16813;SDS011;8524;57.650;11.926;2023-08-06T09:54:09;2.00;;;1.00;;
16813;SDS011;8524;57.650;11.926;2023-08-06T09:56:39;1.20;;;1.00;;
16813;SDS011;8524;57.650;11.926;2023-08-06T09:59:06;1.87;;;1.00;;
16813;SDS011;8524;57.650;11.926;2023-08-06T10:01:33;1.23;;;1.00;;
16813;SDS011;8524;57.650;11.926;2023-08-06T10:04:01;1.90;;;1.10;;
16813;SDS011;8524;57.650;11.926;2023-08-06T10:06:31;1.63;;;1.13;;
16813;SDS011;8524;57.650;11.926;2023-08-06T10:09:01;1.60;;;0.90;;
16813;SDS011;8524;57.650;11.926;2023-08-06T10:11:28;1.00;;;0.90;;
16813;SDS011;8524;57.650;11.926;2023-08-06T10:13:58;1.30;;;0.97;;
16813;SDS011;8524;57.650;11.926;2023-08-06T10:16:30;1.87;;;1.20;;
16813;SDS011;8524;57.650;11.926;2023-08-06T10:18:58;2.77;;;1.07;;
16813;SDS011;8524;57.650;11.926;2023-08-06T10:21:25;1.50;;;1.07;;
16813;SDS011;8524;57.650;11.926;2023-08-06T10:23:56;2.20;;;1.40;;
16813;SDS011;8524;57.650;11.926;2023-08-06T10:26:25;1.83;;;1.20;;
16813;SDS011;8524;57.650;11.926;2023-08-06T10:28:53;1.87;;;1.00;;
16813;SDS011;8524;57.650;11.926;2023-08-06T10:31:20;1.27;;;1.17;;
16813;SDS011;8524;57.650;11.926;2023-08-06T10:34:20;1.80;;;1.30;;
16813;SDS011;8524;57.650;11.926;2023-08-06T10:36:47;2.00;;;1.30;;
16813;SDS011;8524;57.650;11.926;2023-08-06T10:39:16;1.43;;;1.20;;
16813;SDS011;8524;57.650;11.926;2023-08-06T10:41:43;1.93;;;1.30;;
16813;SDS011;8524;57.650;11.926;2023-08-06T10:44:10;1.93;;;1.10;;
16813;SDS011;8524;57.650;11.926;2023-08-06T10:46:37;2.40;;;1.30;;
16813;SDS011;8524;57.650;11.926;2023-08-06T10:49:04;2.23;;;1.47;;
16813;SDS011;8524;57.650;11.926;2023-08-06T10:51:32;1.53;;;1.30;;
16813;SDS011;8524;57.650;11.926;2023-08-06T10:53:59;2.37;;;1.30;;
16813;SDS011;8524;57.650;11.926;2023-08-06T10:56:28;2.60;;;1.20;;
16813;SDS011;8524;57.650;11.926;2023-08-06T10:58:56;1.60;;;1.30;;
16813;SDS011;8524;57.650;11.926;2023-08-06T11:01:23;1.77;;;1.00;;
16813;SDS011;8524;57.650;11.926;2023-08-06T11:03:50;1.30;;;1.13;;
16813;SDS011;8524;57.650;11.926;2023-08-06T11:06:18;2.13;;;1.30;;
16813;SDS011;8524;57.650;11.926;2023-08-06T11:08:49;2.30;;;1.50;;
16813;SDS011;8524;57.650;11.926;2023-08-06T11:11:18;1.27;;;1.17;;
16813;SDS011;8524;57.650;11.926;2023-08-06T11:13:47;2.13;;;1.20;;
16813;SDS011;8524;57.650;11.926;2023-08-06T11:16:15;1.90;;;1.23;;
16813;SDS011;8524;57.650;11.926;2023-08-06T11:18:44;1.67;;;1.27;;
16813;SDS011;8524;57.650;11.926;2023-08-06T11:21:11;2.37;;;1.20;;
16813;SDS011;8524;57.650;11.926;2023-08-06T11:23:38;1.70;;;1.17;;
16813;SDS011;8524;57.650;11.926;2023-08-06T11:26:07;1.87;;;1.20;;
16813;SDS011;8524;57.650;11.926;2023-08-06T11:28:34;2.03;;;1.30;;
16813;SDS011;8524;57.650;11.926;2023-08-06T11:31:02;1.60;;;1.30;;
16813;SDS011;8524;57.650;11.926;2023-08-06T11:33:30;1.43;;;1.20;;
16813;SDS011;8524;57.650;11.926;2023-08-06T11:35:57;2.87;;;1.40;;
16813;SDS011;8524;57.650;11.926;2023-08-06T11:38:25;1.30;;;1.00;;
16813;SDS011;8524;57.650;11.926;2023-08-06T11:40:53;1.50;;;1.10;;
16813;SDS011;8524;57.650;11.926;2023-08-06T11:43:21;1.83;;;1.10;;
16813;SDS011;8524;57.650;11.926;2023-08-06T11:45:48;2.23;;;1.30;;
16813;SDS011;8524;57.650;11.926;2023-08-06T11:48:19;1.77;;;1.20;;
16813;SDS011;8524;57.650;11.926;2023-08-06T11:50:46;2.23;;;1.10;;
16813;SDS011;8524;57.650;11.926;2023-08-06T11:53:14;1.37;;;1.10;;
16813;SDS011;8524;57.650;11.926;2023-08-06T11:55:41;2.90;;;1.40;;
16813;SDS011;8524;57.650;11.926;2023-08-06T11:58:09;1.40;;;1.27;;
16813;SDS011;8524;57.650;11.926;2023-08-06T12:00:37;4.53;;;1.40;;
16813;SDS011;8524;57.650;11.926;2023-08-06T12:03:04;1.30;;;1.00;;
16813;SDS011;8524;57.650;11.926;2023-08-06T12:05:33;2.10;;;1.07;;
16813;SDS011;8524;57.650;11.926;2023-08-06T12:08:01;2.50;;;1.47;;
16813;SDS011;8524;57.650;11.926;2023-08-06T12:10:29;2.30;;;1.20;;
16813;SDS011;8524;57.650;11.926;2023-08-06T12:12:57;2.40;;;1.30;;
16813;SDS011;8524;57.650;11.926;2023-08-06T12:15:24;1.53;;;1.17;;
16813;SDS011;8524;57.650;11.926;2023-08-06T12:17:51;2.37;;;1.20;;
16813;SDS011;8524;57.650;11.926;2023-08-06T12:20:18;1.60;;;1.30;;
16813;SDS011;8524;57.650;11.926;2023-08-06T12:22:47;1.80;;;1.10;;
16813;SDS011;8524;57.650;11.926;2023-08-06T12:25:14;1.73;;;1.00;;
16813;SDS011;8524;57.650;11.926;2023-08-06T12:27:43;3.03;;;1.30;;
16813;SDS011;8524;57.650;11.926;2023-08-06T12:30:11;1.90;;;1.30;;
16813;SDS011;8524;57.650;11.926;2023-08-06T12:32:38;1.53;;;1.33;;
16813;SDS011;8524;57.650;11.926;2023-08-06T12:35:06;2.17;;;1.30;;
16813;SDS011;8524;57.650;11.926;2023-08-06T12:37:34;2.47;;;1.30;;
16813;SDS011;8524;57.650;11.926;2023-08-06T12:40:05;4.03;;;1.20;;
16813;SDS011;8524;57.650;11.926;2023-08-06T12:42:33;2.27;;;1.17;;
16813;SDS011;8524;57.650;11.926;2023-08-06T12:45:00;1.77;;;1.10;;
16813;SDS011;8524;57.650;11.926;2023-08-06T12:47:27;2.50;;;1.30;;
16813;SDS011;8524;57.650;11.926;2023-08-06T12:49:54;1.87;;;1.47;;
16813;SDS011;8524;57.650;11.926;2023-08-06T12:52:21;2.13;;;1.38;;
16813;SDS011;8524;57.650;11.926;2023-08-06T12:54:48;2.43;;;1.40;;
16813;SDS011;8524;57.650;11.926;2023-08-06T12:57:17;1.53;;;1.20;;
16813;SDS011;8524;57.650;11.926;2023-08-06T12:59:44;1.83;;;1.10;;
16813;SDS011;8524;57.650;11.926;2023-08-06T13:02:11;1.70;;;1.33;;
16813;SDS011;8524;57.650;11.926;2023-08-06T13:04:38;1.80;;;1.27;;
16813;SDS011;8524;57.650;11.926;2023-08-06T13:07:05;1.57;;;1.27;;
16813;SDS011;8524;57.650;11.926;2023-08-06T13:09:32;3.07;;;1.50;;
16813;SDS011;8524;57.650;11.926;2023-08-06T13:11:59;2.23;;;1.40;;
16813;SDS011;8524;57.650;11.926;2023-08-06T13:14:31;2.53;;;1.50;;
16813;SDS011;8524;57.650;11.926;2023-08-06T13:16:58;2.87;;;1.23;;
16813;SDS011;8524;57.650;11.926;2023-08-06T13:19:25;1.70;;;1.40;;
16813;SDS011;8524;57.650;11.926;2023-08-06T13:22:00;1.90;;;1.40;;
16813;SDS011;8524;57.650;11.926;2023-08-06T13:24:29;1.63;;;1.30;;
16813;SDS011;8524;57.650;11.926;2023-08-06T13:26:56;2.83;;;1.30;;
16813;SDS011;8524;57.650;11.926;2023-08-06T13:29:24;3.23;;;1.30;;
16813;SDS011;8524;57.650;11.926;2023-08-06T13:31:53;2.03;;;1.20;;
16813;SDS011;8524;57.650;11.926;2023-08-06T13:34:21;2.57;;;1.50;;
16813;SDS011;8524;57.650;11.926;2023-08-06T13:36:48;4.13;;;1.70;;
16813;SDS011;8524;57.650;11.926;2023-08-06T13:39:15;2.23;;;1.20;;
16813;SDS011;8524;57.650;11.926;2023-08-06T13:41:42;1.60;;;1.50;;
16813;SDS011;8524;57.650;11.926;2023-08-06T13:44:09;1.47;;;1.30;;
16813;SDS011;8524;57.650;11.926;2023-08-06T13:46:39;2.60;;;1.20;;
16813;SDS011;8524;57.650;11.926;2023-08-06T13:49:07;2.03;;;1.50;;
16813;SDS011;8524;57.650;11.926;2023-08-06T13:51:34;2.50;;;1.40;;
16813;SDS011;8524;57.650;11.926;2023-08-06T13:54:02;2.53;;;1.40;;
16813;SDS011;8524;57.650;11.926;2023-08-06T13:56:29;2.80;;;1.43;;
16813;SDS011;8524;57.650;11.926;2023-08-06T13:58:56;2.90;;;1.37;;
16813;SDS011;8524;57.650;11.926;2023-08-06T14:01:23;4.50;;;1.60;;
16813;SDS011;8524;57.650;11.926;2023-08-06T14:03:50;1.50;;;1.40;;
16813;SDS011;8524;57.650;11.926;2023-08-06T14:06:20;1.63;;;1.20;;
16813;SDS011;8524;57.650;11.926;2023-08-06T14:08:47;3.50;;;1.70;;
16813;SDS011;8524;57.650;11.926;2023-08-06T14:11:14;2.10;;;1.30;;
16813;SDS011;8524;57.650;11.926;2023-08-06T14:13:41;3.43;;;1.20;;
16813;SDS011;8524;57.650;11.926;2023-08-06T14:16:08;2.33;;;1.40;;
16813;SDS011;8524;57.650;11.926;2023-08-06T14:18:35;2.37;;;1.60;;
16813;SDS011;8524;57.650;11.926;2023-08-06T14:21:03;2.50;;;1.23;;
16813;SDS011;8524;57.650;11.926;2023-08-06T14:23:32;3.13;;;1.20;;
16813;SDS011;8524;57.650;11.926;2023-08-06T14:25:59;1.93;;;1.40;;
16813;SDS011;8524;57.650;11.926;2023-08-06T14:28:26;1.63;;;1.20;;
16813;SDS011;8524;57.650;11.926;2023-08-06T14:30:53;2.20;;;1.10;;
16813;SDS011;8524;57.650;11.926;2023-08-06T14:33:21;2.35;;;1.20;;
16813;SDS011;8524;57.650;11.926;2023-08-06T14:35:48;1.70;;;1.20;;
16813;SDS011;8524;57.650;11.926;2023-08-06T14:38:15;2.23;;;1.27;;
16813;SDS011;8524;57.650;11.926;2023-08-06T14:40:44;2.20;;;1.20;;
16813;SDS011;8524;57.650;11.926;2023-08-06T14:43:11;1.93;;;1.20;;
16813;SDS011;8524;57.650;11.926;2023-08-06T14:45:38;2.90;;;1.10;;
16813;SDS011;8524;57.650;11.926;2023-08-06T14:48:06;2.57;;;1.20;;
16813;SDS011;8524;57.650;11.926;2023-08-06T14:50:33;2.60;;;1.20;;
16813;SDS011;8524;57.650;11.926;2023-08-06T14:53:01;3.07;;;1.40;;